Clearwater, FL (33767)

4:35 PM EDT on September 30, 2016 (GMT -0400)
North Clearwater Beach | | Change Station

Elev 7 ft 27.99 °N, 82.82 °W | Updated 4 seconds ago

Mostly Cloudy
Mostly Cloudy
89.6 °F
Feels Like 91 °F
N
0.2
Wind Variable Wind from SE
Gusts 2.5 mph

Today
High -- | Low -- °F
--% Chance of Precip.
Yesterday
High -- | Low -- °F
Precip. -- in
Pressure 29.97 in
Visibility 10.0 miles
Clouds Scattered Clouds 3000 ft
Mostly Cloudy 3700 ft
Mostly Cloudy 4800 ft
Heat Index 91 °F
Dew Point 64 °F
Humidity 42%
Rainfall 0.00 in
Snow Depth Not available.
7:23 AM 7:17 PM
Waning Crescent, 0% visible
METAR KPIE 301953Z 22009KT 10SM SCT030 BKN037 BKN048 31/24 A2997 RMK AO2 LTG DSNT SE RAB20E40 SLP148 P0000 T03110239
Pressure 29.97 in
Visibility 10.0 miles
Clouds Scattered Clouds 3000 ft
Mostly Cloudy 3700 ft
Mostly Cloudy 4800 ft
Heat Index 91 °F
Dew Point 64 °F
Humidity 42%
Rainfall 0.00 in
Snow Depth Not available.
7:23 AM 7:17 PM
Waning Crescent, 0% visible
METAR KPIE 301953Z 22009KT 10SM SCT030 BKN037 BKN048 31/24 A2997 RMK AO2 LTG DSNT SE RAB20E40 SLP148 P0000 T03110239

10-Day Weather Forecast

Almanac

Astronomy

Sep. 30, 2016 Rise Set
Actual Time
Civil Twilight
Nautical Twilight
Astronomical Twilight
Moon
Length of Visible Light
Length of Day
Tomorrow will be .
, % of the Moon is Illuminated

Today's Extremes

State Highs State Lows

Community

WunderPhotos

Upload Photos

1,942,764 photos uploaded!

WunderBlog® & News

Nearby

Air Quality

  Air Quality AQ Index Pollutant
Not available.

Snow Depth

Station Depth Elevation

Earthquake Activity

City Distance Mag. Time & Date
Minimum magnitude displayed is 2.5.

Coastal Water Temperatures

Place Temperature

Stations

Nearby Weather Stations

Station Location Temp. Windchill Dew Point Humidity Wind Precip. Elev Updated Type
                   

Watches & Warnings

There are currently no watches in effect.